Maitland, Missouri
Current Conditions -  °F | °C
As of 5:53 PM on Friday 28 Nov 2014 (Local Time) from KFNB Reporting Station
Clear Clear  
Wind Chill: 43°   Ceiling: Unl
Heat Index: 47°   Visibility: 10mi
Dew Point: 32°   Wind: 9mph
Humidity: 56%   Direction: 150°SSE
Pressure: 29.72"   Gusts: NA
Location:  40.2°N, 95.07°W
Report Text: KFNB 282353Z AUTO 15008KT 10SM CLR 08/00 A2972 RMK AO2 SLP068 T00830000 10156 20078 55012
Loading
Personal Weather Stations






























Interactive Weather Map New forecast layout! Learn more

10-Day Weather Forecast

Advertisements
Track Severe Weather on mobile